Terminal Aerodrome Forecast
Issued by NWS

Current Version | Previous Version | Text Only | Print | Product List | Glossary On
Versions: 1 2 3 4 5 6 7 8 9 10 11 12
000
FTUS45 KRIW 101100
TAFCPR
TAF
KCPR 101132Z 1012/1112 26008KT P6SM FEW120 SCT200
     FM101800 02009KT P6SM VCSH SCT100 BKN150
     FM102200 03007KT P6SM VCTS SCT070CB BKN100
     FM110400 09009KT P6SM VCSH BKN110
     FM110800 VRB05KT P6SM SCT100 BKN200=

USA.gov is the U.S. government's official web portal to all federal, state and local government web resources and services.